Overview Statistics Trail Chart Weather Telemetry Raw packets
 

This is the latest recevied weather packets stored in our database for station/object DK6MR-13. If no packets are shown the sender has not sent any weather packets the latest 10 day(s).

<< 7 8 9 10 11 12 13 >>
Time Temp. Humidity Pressure Rain* Wind** Luminosity Snow
1777896483 22.22° C 54% 1010.8 hPa 0 mm - - -
1777895583 21.67° C 56% 1010.8 hPa 0 mm - - -
1777894682 22.78° C 52% 1010.8 hPa 0 mm - - -
1777893781 21.11° C 56% 1011.1 hPa 0 mm - - -
1777892880 21.67° C 57% 1011.1 hPa 0 mm - - -
1777891978 21.67° C 55% 1011.1 hPa 0 mm - - -
1777891078 22.22° C 54% 1011.1 hPa 0 mm - - -
1777890176 21.67° C 55% 1011.5 hPa 0 mm - - -
1777889275 21.67° C 55% 1011.5 hPa 0 mm - - -
1777888374 21.11° C 56% 1011.5 hPa 0 mm - - -
1777887474 21.11° C 56% 1011.8 hPa 0 mm - - -
1777886572 20.56° C 57% 1011.8 hPa 0 mm - - -
1777885671 20.56° C 59% 1011.8 hPa 0 mm - - -
1777884770 19.44° C 59% 1011.8 hPa 0 mm - - -
1777883869 18.89° C 58% 1011.8 hPa 0 mm - - -
1777882968 18.33° C 59% 1011.8 hPa 0 mm - - -
1777882067 17.78° C 55% 1011.8 hPa 0 mm - - -
1777881167 17.22° C 56% 1011.8 hPa 0 mm - - -
1777880266 16.67° C 60% 1012.2 hPa 0 mm - - -
1777879365 16.11° C 63% 1011.8 hPa 0 mm - - -
1777878464 15° C 66% 1011.8 hPa 0 mm - - -
1777877563 14.44° C 69% 1011.8 hPa 0 mm - - -
1777876662 15° C 68% 1011.8 hPa 0 mm - - -
1777875761 12.78° C 77% 1011.8 hPa 0 mm - - -
1777874860 12.78° C 76% 1011.5 hPa 0 mm - - -

* Rain latest hour (hover to see other rain measurements)
** Current wind speed in m/s (hover to see current wind gust speed)